首页
METAR-TAF:

METAR-TAF

机场 :

凡城, 土耳其

纬度: 38-27N, 经度: 043-19E, 海拔: 1667米

当前天气观测

该预报发布于36分钟前的07:50 UTC
风速1节,风向多变
温度 4°C
湿度 60%
气压 1017 hPa
能见度10公里或以上
散云层高于3000英尺
多云层高于7000英尺

METAR: LTCI 100750Z VRB01KT 9999 SCT030 BKN070 04/M03 Q1017 NOSIG

时间: 11:26 (08:26 UTC)

预报

该预报发布于3小时和46分钟前的04:40 UTC
预报有效从10日的 06点(UTC)到 10日的 15点(UTC)
风速8节,风向
能見度: 8000
散云层高于3500英尺
多云层高于7000英尺
几率 40% :
短暂存在
从 10日的 11点(UTC)到 10日的 15点(UTC)
能見度: 2800
散云层高于1000英尺
多云层高于3000英尺
小雨, 雪, 轻雾

TAF: LTCI 100440Z 1006/1015 09008KT 8000 SCT035 BKN070 PROB40 TEMPO 1011/1015 2800 -RASN BR SCT010 BKN030

超过4000个机场的气象观测和天气预报(METAR&TAF报告)。

可查询的气象台以黄色和红色小点在地图上表示。

将鼠标移到小点上方,可查看气象台名称。

然后点击查看天气观测和预报。

如需切换地图:点击带黑十字的绿色按钮放大地图;点击带横线的绿色按钮缩小地图;或者点击绿色箭头查看邻近地区的地图。


METAR-TAF: